sensor_id;sensor_type;location;lat;lon;timestamp;pressure;altitude;pressure_sealevel;temperature;humidity
72423;BME280;60413;55.658;37.498;2022-08-03T00:02:26;98966.63;;;20.09;100.00
72423;BME280;60413;55.658;37.498;2022-08-03T00:04:51;98992.41;;;20.27;100.00
72423;BME280;60413;55.658;37.498;2022-08-03T00:07:18;99007.84;;;20.30;100.00
72423;BME280;60413;55.658;37.498;2022-08-03T00:09:44;98997.75;;;20.27;100.00
72423;BME280;60413;55.658;37.498;2022-08-03T00:21:10;99001.28;;;20.14;100.00
72423;BME280;60413;55.658;37.498;2022-08-03T00:23:41;98979.22;;;19.86;100.00
72423;BME280;60413;55.658;37.498;2022-08-03T00:26:08;98944.19;;;19.59;100.00
72423;BME280;60413;55.658;37.498;2022-08-03T00:28:41;98968.97;;;19.65;100.00
72423;BME280;60413;55.658;37.498;2022-08-03T00:31:07;99003.75;;;19.88;100.00
72423;BME280;60413;55.658;37.498;2022-08-03T00:33:33;98974.59;;;19.63;100.00
72423;BME280;60413;55.658;37.498;2022-08-03T00:35:59;98950.50;;;19.41;100.00
72423;BME280;60413;55.658;37.498;2022-08-03T00:38:26;98949.72;;;19.40;100.00
72423;BME280;60413;55.658;37.498;2022-08-03T00:40:54;98961.28;;;19.36;100.00
72423;BME280;60413;55.658;37.498;2022-08-03T00:43:24;98929.75;;;19.24;100.00
72423;BME280;60413;55.658;37.498;2022-08-03T00:45:52;99001.16;;;19.60;100.00
72423;BME280;60413;55.658;37.498;2022-08-03T00:48:20;98936.09;;;19.14;100.00
72423;BME280;60413;55.658;37.498;2022-08-03T00:50:47;98981.28;;;19.38;100.00
72423;BME280;60413;55.658;37.498;2022-08-03T01:46:40;98951.28;;;18.91;100.00
72423;BME280;60413;55.658;37.498;2022-08-03T01:49:10;98976.06;;;19.05;100.00
72423;BME280;60413;55.658;37.498;2022-08-03T01:51:40;98970.53;;;19.02;100.00
72423;BME280;60413;55.658;37.498;2022-08-03T01:54:09;98978.16;;;19.09;100.00
72423;BME280;60413;55.658;37.498;2022-08-03T02:17:18;98994.72;;;21.23;100.00
72423;BME280;60413;55.658;37.498;2022-08-03T02:19:45;98979.91;;;21.17;100.00
72423;BME280;60413;55.658;37.498;2022-08-03T02:22:12;98971.81;;;21.08;100.00
72423;BME280;60413;55.658;37.498;2022-08-03T02:24:39;98968.28;;;21.39;100.00
72423;BME280;60413;55.658;37.498;2022-08-03T02:27:15;98952.88;;;21.71;100.00
72423;BME280;60413;55.658;37.498;2022-08-03T02:29:47;98978.22;;;22.08;100.00
72423;BME280;60413;55.658;37.498;2022-08-03T02:32:19;98999.22;;;22.06;100.00
72423;BME280;60413;55.658;37.498;2022-08-03T02:34:48;98953.50;;;21.59;100.00
72423;BME280;60413;55.658;37.498;2022-08-03T02:37:18;98962.16;;;21.47;100.00
72423;BME280;60413;55.658;37.498;2022-08-03T02:42:39;98988.63;;;20.82;100.00
72423;BME280;60413;55.658;37.498;2022-08-03T02:51:29;98960.47;;;20.31;100.00
72423;BME280;60413;55.658;37.498;2022-08-03T02:54:01;98986.22;;;20.49;100.00
72423;BME280;60413;55.658;37.498;2022-08-03T03:02:47;98974.97;;;20.30;100.00
72423;BME280;60413;55.658;37.498;2022-08-03T03:05:14;98988.59;;;20.51;100.00
72423;BME280;60413;55.658;37.498;2022-08-03T03:08:00;99001.53;;;20.58;100.00
72423;BME280;60413;55.658;37.498;2022-08-03T03:10:26;98956.25;;;20.39;100.00
72423;BME280;60413;55.658;37.498;2022-08-03T03:12:57;99009.84;;;20.70;100.00
72423;BME280;60413;55.658;37.498;2022-08-03T03:18:11;98988.28;;;20.52;100.00
72423;BME280;60413;55.658;37.498;2022-08-03T03:20:39;98990.38;;;20.55;100.00
72423;BME280;60413;55.658;37.498;2022-08-03T03:35:51;98999.78;;;21.33;100.00
72423;BME280;60413;55.658;37.498;2022-08-03T03:38:18;99015.81;;;21.64;100.00
72423;BME280;60413;55.658;37.498;2022-08-03T03:40:55;99009.88;;;22.58;100.00
72423;BME280;60413;55.658;37.498;2022-08-03T03:43:22;98992.06;;;23.31;100.00
72423;BME280;60413;55.658;37.498;2022-08-03T04:59:19;99005.50;;;32.17;86.67
72423;BME280;60413;55.658;37.498;2022-08-03T05:01:46;99049.94;;;32.31;85.52
72423;BME280;60413;55.658;37.498;2022-08-03T05:04:12;99007.91;;;32.72;84.33
72423;BME280;60413;55.658;37.498;2022-08-03T05:06:38;99011.75;;;33.18;81.62
72423;BME280;60413;55.658;37.498;2022-08-03T05:11:54;99025.78;;;32.34;85.03
72423;BME280;60413;55.658;37.498;2022-08-03T05:14:20;99019.22;;;32.81;83.40
72423;BME280;60413;55.658;37.498;2022-08-03T05:26:33;99003.97;;;32.44;78.70
72423;BME280;60413;55.658;37.498;2022-08-03T05:30:56;99001.66;;;32.90;81.25
72423;BME280;60413;55.658;37.498;2022-08-03T05:35:18;99064.25;;;33.90;78.32
72423;BME280;60413;55.658;37.498;2022-08-03T05:39:49;99051.75;;;33.96;70.31
72423;BME280;60413;55.658;37.498;2022-08-03T05:44:00;99036.19;;;33.79;75.39
72423;BME280;60413;55.658;37.498;2022-08-03T05:47:36;99023.28;;;33.87;72.71
72423;BME280;60413;55.658;37.498;2022-08-03T06:35:57;99031.75;;;30.96;86.79
72423;BME280;60413;55.658;37.498;2022-08-03T06:38:30;99069.13;;;30.61;90.37
72423;BME280;60413;55.658;37.498;2022-08-03T06:41:04;99017.81;;;29.85;93.17
72423;BME280;60413;55.658;37.498;2022-08-03T06:49:38;99063.16;;;30.11;92.20
72423;BME280;60413;55.658;37.498;2022-08-03T07:25:59;99087.88;;;31.74;73.99
72423;BME280;60413;55.658;37.498;2022-08-03T08:02:41;99042.97;;;30.91;80.89
72423;BME280;60413;55.658;37.498;2022-08-03T08:23:12;99086.53;;;28.43;90.75
72423;BME280;60413;55.658;37.498;2022-08-03T08:26:45;99036.53;;;29.93;84.00
72423;BME280;60413;55.658;37.498;2022-08-03T08:30:33;99047.75;;;31.05;79.62
72423;BME280;60413;55.658;37.498;2022-08-03T08:42:00;99054.22;;;30.10;81.26
72423;BME280;60413;55.658;37.498;2022-08-03T08:44:46;99070.56;;;30.14;78.51
72423;BME280;60413;55.658;37.498;2022-08-03T08:47:24;99047.50;;;28.90;81.82
72423;BME280;60413;55.658;37.498;2022-08-03T08:49:57;99051.94;;;29.02;86.63
72423;BME280;60413;55.658;37.498;2022-08-03T08:52:38;99101.59;;;30.13;86.07
72423;BME280;60413;55.658;37.498;2022-08-03T08:55:21;99109.91;;;30.58;83.55
72423;BME280;60413;55.658;37.498;2022-08-03T08:58:09;99094.22;;;30.89;82.49
72423;BME280;60413;55.658;37.498;2022-08-03T09:00:43;99086.84;;;30.10;86.02
72423;BME280;60413;55.658;37.498;2022-08-03T09:03:15;99054.16;;;29.46;89.81
72423;BME280;60413;55.658;37.498;2022-08-03T09:05:58;99076.88;;;29.34;92.24
72423;BME280;60413;55.658;37.498;2022-08-03T09:08:29;99052.22;;;29.47;93.09
72423;BME280;60413;55.658;37.498;2022-08-03T09:10:55;99082.16;;;29.77;91.16
72423;BME280;60413;55.658;37.498;2022-08-03T09:13:34;99058.22;;;29.90;89.81
72423;BME280;60413;55.658;37.498;2022-08-03T09:16:20;99053.69;;;29.98;89.78
72423;BME280;60413;55.658;37.498;2022-08-03T09:19:13;99106.97;;;30.40;86.00
72423;BME280;60413;55.658;37.498;2022-08-03T09:22:08;99065.16;;;30.52;86.32
72423;BME280;60413;55.658;37.498;2022-08-03T09:25:10;99103.97;;;30.90;88.45
72423;BME280;60413;55.658;37.498;2022-08-03T09:31:09;99107.53;;;30.56;84.08
72423;BME280;60413;55.658;37.498;2022-08-03T09:33:55;99081.41;;;30.44;87.05
72423;BME280;60413;55.658;37.498;2022-08-03T09:40:10;99064.09;;;31.08;90.10
72423;BME280;60413;55.658;37.498;2022-08-03T09:49:09;99049.63;;;30.18;85.16
72423;BME280;60413;55.658;37.498;2022-08-03T09:52:10;99079.56;;;30.22;88.79
72423;BME280;60413;55.658;37.498;2022-08-03T09:58:06;99100.53;;;29.61;87.64
72423;BME280;60413;55.658;37.498;2022-08-03T10:01:04;99052.66;;;29.22;89.92
72423;BME280;60413;55.658;37.498;2022-08-03T10:03:42;99061.94;;;29.21;93.53
72423;BME280;60413;55.658;37.498;2022-08-03T10:06:22;99089.06;;;29.21;94.33
72423;BME280;60413;55.658;37.498;2022-08-03T10:09:11;99099.22;;;29.24;94.38
72423;BME280;60413;55.658;37.498;2022-08-03T10:11:43;99043.41;;;28.77;94.76
72423;BME280;60413;55.658;37.498;2022-08-03T10:14:17;99085.91;;;28.30;97.37
72423;BME280;60413;55.658;37.498;2022-08-03T10:16:47;99057.78;;;27.44;100.00
72423;BME280;60413;55.658;37.498;2022-08-03T10:19:28;99122.06;;;27.47;100.00
72423;BME280;60413;55.658;37.498;2022-08-03T10:22:06;99087.56;;;27.12;100.00
72423;BME280;60413;55.658;37.498;2022-08-03T10:30:27;99107.06;;;27.34;100.00
72423;BME280;60413;55.658;37.498;2022-08-03T10:33:08;99063.91;;;27.25;100.00
72423;BME280;60413;55.658;37.498;2022-08-03T10:35:43;99091.53;;;28.21;100.00
72423;BME280;60413;55.658;37.498;2022-08-03T10:38:30;99067.38;;;28.32;100.00
72423;BME280;60413;55.658;37.498;2022-08-03T10:41:04;99080.63;;;28.37;100.00
72423;BME280;60413;55.658;37.498;2022-08-03T10:44:38;99091.94;;;28.62;99.96
72423;BME280;60413;55.658;37.498;2022-08-03T10:47:05;99090.00;;;28.63;95.93
72423;BME280;60413;55.658;37.498;2022-08-03T10:49:50;99063.88;;;28.74;94.89
72423;BME280;60413;55.658;37.498;2022-08-03T10:52:16;99074.16;;;29.11;95.59
72423;BME280;60413;55.658;37.498;2022-08-03T10:54:44;99110.16;;;29.58;92.80
72423;BME280;60413;55.658;37.498;2022-08-03T10:57:46;99093.47;;;29.06;94.21
72423;BME280;60413;55.658;37.498;2022-08-03T11:00:23;99117.78;;;29.22;94.12
72423;BME280;60413;55.658;37.498;2022-08-03T11:03:09;99105.53;;;29.09;95.74
72423;BME280;60413;55.658;37.498;2022-08-03T11:05:51;99078.97;;;28.98;94.51
72423;BME280;60413;55.658;37.498;2022-08-03T11:36:06;99108.59;;;30.85;83.60
72423;BME280;60413;55.658;37.498;2022-08-03T11:39:13;99067.59;;;30.64;78.47
72423;BME280;60413;55.658;37.498;2022-08-03T11:41:39;99100.47;;;30.89;78.19
72423;BME280;60413;55.658;37.498;2022-08-03T11:44:05;99097.22;;;30.73;78.95
72423;BME280;60413;55.658;37.498;2022-08-03T11:46:40;99093.16;;;30.56;81.94
72423;BME280;60413;55.658;37.498;2022-08-03T11:49:06;99059.06;;;30.28;82.16
72423;BME280;60413;55.658;37.498;2022-08-03T11:51:32;99071.50;;;29.95;84.21
72423;BME280;60413;55.658;37.498;2022-08-03T11:54:01;99091.06;;;29.51;89.85
72423;BME280;60413;55.658;37.498;2022-08-03T11:56:28;99065.00;;;29.19;90.86
72423;BME280;60413;55.658;37.498;2022-08-03T12:02:17;99077.91;;;29.26;94.09
72423;BME280;60413;55.658;37.498;2022-08-03T12:04:57;99113.78;;;29.39;96.40
72423;BME280;60413;55.658;37.498;2022-08-03T12:07:27;99041.41;;;28.97;94.33
72423;BME280;60413;55.658;37.498;2022-08-03T12:10:09;99071.75;;;29.06;96.92
72423;BME280;60413;55.658;37.498;2022-08-03T12:12:39;99062.00;;;29.01;95.27
72423;BME280;60413;55.658;37.498;2022-08-03T12:15:17;99066.63;;;29.24;93.24
72423;BME280;60413;55.658;37.498;2022-08-03T12:17:51;99057.81;;;29.08;93.06
72423;BME280;60413;55.658;37.498;2022-08-03T12:20:28;99048.25;;;29.14;95.60
72423;BME280;60413;55.658;37.498;2022-08-03T12:23:01;99072.38;;;29.46;93.10
72423;BME280;60413;55.658;37.498;2022-08-03T12:25:33;99120.59;;;30.09;92.88
72423;BME280;60413;55.658;37.498;2022-08-03T12:28:20;99070.81;;;30.36;88.06
72423;BME280;60413;55.658;37.498;2022-08-03T12:30:50;99045.72;;;29.82;87.19
72423;BME280;60413;55.658;37.498;2022-08-03T12:33:26;99095.84;;;30.18;88.48
72423;BME280;60413;55.658;37.498;2022-08-03T12:36:07;99079.53;;;30.18;91.61
72423;BME280;60413;55.658;37.498;2022-08-03T12:38:37;99044.22;;;30.22;89.00
72423;BME280;60413;55.658;37.498;2022-08-03T12:41:04;99094.56;;;30.83;87.89
72423;BME280;60413;55.658;37.498;2022-08-03T12:43:31;99037.28;;;30.65;85.00
72423;BME280;60413;55.658;37.498;2022-08-03T12:46:14;99084.78;;;30.75;84.78
72423;BME280;60413;55.658;37.498;2022-08-03T12:51:55;99060.75;;;30.40;88.76
72423;BME280;60413;55.658;37.498;2022-08-03T12:54:29;99048.06;;;30.51;87.35
72423;BME280;60413;55.658;37.498;2022-08-03T12:57:10;99082.31;;;30.59;87.72
72423;BME280;60413;55.658;37.498;2022-08-03T12:59:41;99088.16;;;30.24;87.34
72423;BME280;60413;55.658;37.498;2022-08-03T13:02:15;99083.50;;;29.90;87.90
72423;BME280;60413;55.658;37.498;2022-08-03T13:04:45;99090.53;;;29.68;88.30
72423;BME280;60413;55.658;37.498;2022-08-03T13:07:12;99083.88;;;29.35;92.10
72423;BME280;60413;55.658;37.498;2022-08-03T13:09:46;99107.63;;;29.69;94.34
72423;BME280;60413;55.658;37.498;2022-08-03T13:12:17;99098.06;;;29.79;92.36
72423;BME280;60413;55.658;37.498;2022-08-03T13:14:46;99089.84;;;29.75;92.42
72423;BME280;60413;55.658;37.498;2022-08-03T13:17:17;99080.47;;;29.69;91.97
72423;BME280;60413;55.658;37.498;2022-08-03T13:19:47;99077.84;;;29.76;90.18
72423;BME280;60413;55.658;37.498;2022-08-03T13:22:21;99074.44;;;29.83;93.58
72423;BME280;60413;55.658;37.498;2022-08-03T13:24:50;99051.34;;;29.69;91.43
72423;BME280;60413;55.658;37.498;2022-08-03T13:27:20;99078.63;;;30.07;92.01
72423;BME280;60413;55.658;37.498;2022-08-03T13:29:49;99108.19;;;30.42;94.17
72423;BME280;60413;55.658;37.498;2022-08-03T13:32:21;99047.97;;;30.10;88.08
72423;BME280;60413;55.658;37.498;2022-08-03T13:34:47;99061.66;;;30.17;88.00
72423;BME280;60413;55.658;37.498;2022-08-03T13:37:14;99035.75;;;29.63;89.86
72423;BME280;60413;55.658;37.498;2022-08-03T13:39:41;99100.03;;;29.82;95.73
72423;BME280;60413;55.658;37.498;2022-08-03T13:42:10;99100.78;;;29.79;96.15
72423;BME280;60413;55.658;37.498;2022-08-03T13:44:43;99090.59;;;29.45;96.15
72423;BME280;60413;55.658;37.498;2022-08-03T13:47:09;99102.13;;;29.65;96.78
72423;BME280;60413;55.658;37.498;2022-08-03T13:49:35;99079.91;;;29.29;96.02
72423;BME280;60413;55.658;37.498;2022-08-03T13:52:04;99094.78;;;29.16;97.15
72423;BME280;60413;55.658;37.498;2022-08-03T13:54:30;99046.63;;;28.86;97.96
72423;BME280;60413;55.658;37.498;2022-08-03T13:56:57;99075.00;;;29.15;93.21
72423;BME280;60413;55.658;37.498;2022-08-03T13:59:24;99062.84;;;29.29;91.31
72423;BME280;60413;55.658;37.498;2022-08-03T14:01:52;99038.47;;;29.09;88.72
72423;BME280;60413;55.658;37.498;2022-08-03T14:04:19;99041.28;;;29.16;89.88
72423;BME280;60413;55.658;37.498;2022-08-03T14:06:46;99061.94;;;29.48;91.29
72423;BME280;60413;55.658;37.498;2022-08-03T14:09:13;99039.84;;;29.49;91.17
72423;BME280;60413;55.658;37.498;2022-08-03T14:11:40;99075.25;;;29.87;88.36
72423;BME280;60413;55.658;37.498;2022-08-03T14:14:06;99054.81;;;29.66;90.51
72423;BME280;60413;55.658;37.498;2022-08-03T14:16:52;99053.13;;;29.85;90.02
72423;BME280;60413;55.658;37.498;2022-08-03T14:19:21;99095.72;;;30.07;87.26
72423;BME280;60413;55.658;37.498;2022-08-03T14:21:56;99061.31;;;29.88;85.44
72423;BME280;60413;55.658;37.498;2022-08-03T14:24:25;99056.09;;;30.06;85.68
72423;BME280;60413;55.658;37.498;2022-08-03T14:27:07;99051.81;;;30.05;84.54
72423;BME280;60413;55.658;37.498;2022-08-03T14:29:36;99063.16;;;30.11;84.28
72423;BME280;60413;55.658;37.498;2022-08-03T14:32:12;99107.94;;;29.90;88.06
72423;BME280;60413;55.658;37.498;2022-08-03T14:35:08;99096.28;;;29.63;91.35
72423;BME280;60413;55.658;37.498;2022-08-03T14:37:40;99026.81;;;28.82;93.18
72423;BME280;60413;55.658;37.498;2022-08-03T14:40:20;99052.78;;;28.83;96.74
72423;BME280;60413;55.658;37.498;2022-08-03T14:42:47;99062.28;;;28.96;99.30
72423;BME280;60413;55.658;37.498;2022-08-03T14:45:24;99098.16;;;29.09;99.20
72423;BME280;60413;55.658;37.498;2022-08-03T14:48:10;99062.78;;;28.79;100.00
72423;BME280;60413;55.658;37.498;2022-08-03T14:50:39;99096.06;;;28.99;100.00
72423;BME280;60413;55.658;37.498;2022-08-03T14:53:13;99074.41;;;28.79;100.00
72423;BME280;60413;55.658;37.498;2022-08-03T14:55:42;99069.97;;;28.68;100.00
72423;BME280;60413;55.658;37.498;2022-08-03T14:58:11;99092.06;;;28.70;100.00
72423;BME280;60413;55.658;37.498;2022-08-03T15:00:40;99050.44;;;28.39;100.00
72423;BME280;60413;55.658;37.498;2022-08-03T15:03:09;99051.25;;;28.20;100.00
72423;BME280;60413;55.658;37.498;2022-08-03T15:05:38;99037.44;;;28.05;100.00
72423;BME280;60413;55.658;37.498;2022-08-03T15:08:16;99064.88;;;28.04;100.00
72423;BME280;60413;55.658;37.498;2022-08-03T15:10:42;99077.78;;;28.11;100.00
72423;BME280;60413;55.658;37.498;2022-08-03T15:13:11;99109.25;;;28.15;100.00
72423;BME280;60413;55.658;37.498;2022-08-03T15:15:37;99103.69;;;27.92;100.00
72423;BME280;60413;55.658;37.498;2022-08-03T15:18:11;99052.31;;;27.41;100.00
72423;BME280;60413;55.658;37.498;2022-08-03T15:20:57;99087.97;;;27.62;100.00
72423;BME280;60413;55.658;37.498;2022-08-03T15:23:31;99055.47;;;27.27;100.00
72423;BME280;60413;55.658;37.498;2022-08-03T15:26:00;99088.53;;;27.36;100.00
72423;BME280;60413;55.658;37.498;2022-08-03T15:28:31;99075.94;;;27.28;100.00
72423;BME280;60413;55.658;37.498;2022-08-03T15:30:57;99045.69;;;27.06;100.00
72423;BME280;60413;55.658;37.498;2022-08-03T15:33:44;99038.72;;;26.89;100.00
72423;BME280;60413;55.658;37.498;2022-08-03T15:36:42;99110.03;;;27.29;100.00
72423;BME280;60413;55.658;37.498;2022-08-03T15:39:18;99048.75;;;26.89;100.00
72423;BME280;60413;55.658;37.498;2022-08-03T15:41:54;99121.78;;;27.21;100.00
72423;BME280;60413;55.658;37.498;2022-08-03T15:44:20;99075.72;;;26.85;100.00
72423;BME280;60413;55.658;37.498;2022-08-03T15:46:54;99085.13;;;26.75;100.00
72423;BME280;60413;55.658;37.498;2022-08-03T15:49:48;99061.06;;;26.58;100.00
72423;BME280;60413;55.658;37.498;2022-08-03T15:57:18;99111.03;;;26.92;100.00
72423;BME280;60413;55.658;37.498;2022-08-03T16:04:07;99112.41;;;26.70;100.00
72423;BME280;60413;55.658;37.498;2022-08-03T16:06:36;99073.81;;;26.41;100.00
72423;BME280;60413;55.658;37.498;2022-08-03T16:09:06;99084.59;;;26.41;100.00
72423;BME280;60413;55.658;37.498;2022-08-03T16:11:36;99068.34;;;26.25;100.00
72423;BME280;60413;55.658;37.498;2022-08-03T16:14:05;99063.00;;;26.13;100.00
72423;BME280;60413;55.658;37.498;2022-08-03T16:16:31;99066.91;;;26.16;100.00
72423;BME280;60413;55.658;37.498;2022-08-03T16:19:04;99105.75;;;26.39;100.00
72423;BME280;60413;55.658;37.498;2022-08-03T16:21:33;99058.44;;;26.01;100.00
72423;BME280;60413;55.658;37.498;2022-08-03T16:24:02;99075.25;;;26.11;100.00
72423;BME280;60413;55.658;37.498;2022-08-03T16:26:32;99077.63;;;26.12;100.00
72423;BME280;60413;55.658;37.498;2022-08-03T16:29:24;99116.44;;;26.20;100.00
72423;BME280;60413;55.658;37.498;2022-08-03T16:32:01;99054.84;;;25.73;100.00
72423;BME280;60413;55.658;37.498;2022-08-03T16:34:35;99087.69;;;25.87;100.00
72423;BME280;60413;55.658;37.498;2022-08-03T16:37:05;99055.81;;;25.64;100.00
72423;BME280;60413;55.658;37.498;2022-08-03T16:39:32;99085.78;;;25.75;100.00
72423;BME280;60413;55.658;37.498;2022-08-03T16:41:59;99055.13;;;25.55;100.00
72423;BME280;60413;55.658;37.498;2022-08-03T16:44:28;99127.59;;;25.94;100.00
72423;BME280;60413;55.658;37.498;2022-08-03T16:46:58;99074.47;;;25.57;100.00
72423;BME280;60413;55.658;37.498;2022-08-03T16:49:49;99116.59;;;25.86;100.00
72423;BME280;60413;55.658;37.498;2022-08-03T16:52:16;99089.31;;;25.63;100.00
72423;BME280;60413;55.658;37.498;2022-08-03T16:54:43;99089.53;;;25.58;100.00
72423;BME280;60413;55.658;37.498;2022-08-03T16:57:12;99094.16;;;25.58;100.00
72423;BME280;60413;55.658;37.498;2022-08-03T16:59:41;99096.19;;;25.48;100.00
72423;BME280;60413;55.658;37.498;2022-08-03T17:02:17;99085.25;;;25.32;100.00
72423;BME280;60413;55.658;37.498;2022-08-03T17:04:55;99101.13;;;25.34;100.00
72423;BME280;60413;55.658;37.498;2022-08-03T17:07:36;99093.44;;;25.24;100.00
72423;BME280;60413;55.658;37.498;2022-08-03T17:10:08;99135.75;;;25.44;100.00
72423;BME280;60413;55.658;37.498;2022-08-03T17:12:35;99143.72;;;25.41;100.00
72423;BME280;60413;55.658;37.498;2022-08-03T17:15:07;99152.03;;;25.36;100.00
72423;BME280;60413;55.658;37.498;2022-08-03T17:17:34;99127.97;;;25.30;100.00
72423;BME280;60413;55.658;37.498;2022-08-03T17:20:06;99083.66;;;24.94;100.00
72423;BME280;60413;55.658;37.498;2022-08-03T17:22:42;99075.31;;;24.87;100.00
72423;BME280;60413;55.658;37.498;2022-08-03T17:25:14;99101.16;;;25.01;100.00
72423;BME280;60413;55.658;37.498;2022-08-03T17:27:40;99108.16;;;25.02;100.00
72423;BME280;60413;55.658;37.498;2022-08-03T17:30:14;99086.09;;;24.75;100.00
72423;BME280;60413;55.658;37.498;2022-08-03T17:33:03;99129.38;;;25.03;100.00
72423;BME280;60413;55.658;37.498;2022-08-03T17:35:37;99126.53;;;24.87;100.00
72423;BME280;60413;55.658;37.498;2022-08-03T17:38:04;99124.16;;;24.86;100.00
72423;BME280;60413;55.658;37.498;2022-08-03T17:40:39;99094.72;;;24.68;100.00
72423;BME280;60413;55.658;37.498;2022-08-03T17:43:06;99117.66;;;24.87;100.00
72423;BME280;60413;55.658;37.498;2022-08-03T17:45:33;99138.03;;;24.96;100.00
72423;BME280;60413;55.658;37.498;2022-08-03T17:48:02;99119.91;;;24.85;100.00
72423;BME280;60413;55.658;37.498;2022-08-03T17:50:38;99136.75;;;24.94;100.00
72423;BME280;60413;55.658;37.498;2022-08-03T17:53:15;99130.25;;;24.83;100.00
72423;BME280;60413;55.658;37.498;2022-08-03T17:59:16;99161.19;;;24.98;100.00
72423;BME280;60413;55.658;37.498;2022-08-03T18:07:46;99155.69;;;24.73;100.00
72423;BME280;60413;55.658;37.498;2022-08-03T18:10:21;99174.38;;;24.78;100.00
72423;BME280;60413;55.658;37.498;2022-08-03T18:25:47;99170.16;;;24.47;100.00
72423;BME280;60413;55.658;37.498;2022-08-03T18:28:20;99175.19;;;24.57;100.00
72423;BME280;60413;55.658;37.498;2022-08-03T18:30:53;99168.84;;;24.32;100.00
72423;BME280;60413;55.658;37.498;2022-08-03T18:33:23;99187.69;;;24.53;100.00
72423;BME280;60413;55.658;37.498;2022-08-03T18:36:45;99219.31;;;24.65;100.00
72423;BME280;60413;55.658;37.498;2022-08-03T18:39:21;99213.38;;;24.59;100.00
72423;BME280;60413;55.658;37.498;2022-08-03T18:41:47;99184.88;;;24.29;100.00
72423;BME280;60413;55.658;37.498;2022-08-03T18:44:13;99171.88;;;24.10;100.00
72423;BME280;60413;55.658;37.498;2022-08-03T18:49:41;99197.50;;;24.16;100.00
72423;BME280;60413;55.658;37.498;2022-08-03T18:52:42;99195.66;;;23.99;100.00
72423;BME280;60413;55.658;37.498;2022-08-03T18:55:34;99235.31;;;24.19;100.00
72423;BME280;60413;55.658;37.498;2022-08-03T18:58:40;99171.56;;;23.73;100.00
72423;BME280;60413;55.658;37.498;2022-08-03T19:07:29;99237.63;;;24.00;100.00
72423;BME280;60413;55.658;37.498;2022-08-03T19:19:42;99236.66;;;23.66;100.00
72423;BME280;60413;55.658;37.498;2022-08-03T19:36:58;99244.03;;;23.30;100.00
72423;BME280;60413;55.658;37.498;2022-08-03T19:40:14;99190.81;;;22.89;100.00
72423;BME280;60413;55.658;37.498;2022-08-03T19:43:08;99231.41;;;23.22;100.00
72423;BME280;60413;55.658;37.498;2022-08-03T19:46:25;99164.72;;;22.72;100.00
72423;BME280;60413;55.658;37.498;2022-08-03T19:49:46;99233.00;;;23.15;100.00
72423;BME280;60413;55.658;37.498;2022-08-03T19:52:26;99222.72;;;22.99;100.00
72423;BME280;60413;55.658;37.498;2022-08-03T19:54:55;99203.59;;;22.83;100.00
72423;BME280;60413;55.658;37.498;2022-08-03T19:57:29;99178.16;;;22.63;100.00
72423;BME280;60413;55.658;37.498;2022-08-03T20:00:01;99160.31;;;22.50;100.00
72423;BME280;60413;55.658;37.498;2022-08-03T20:02:41;99204.88;;;22.68;100.00
72423;BME280;60413;55.658;37.498;2022-08-03T20:05:28;99207.88;;;22.67;100.00
72423;BME280;60413;55.658;37.498;2022-08-03T20:08:29;99180.41;;;22.44;100.00
72423;BME280;60413;55.658;37.498;2022-08-03T20:11:09;99213.41;;;22.62;100.00
72423;BME280;60413;55.658;37.498;2022-08-03T20:13:43;99201.25;;;22.55;100.00
72423;BME280;60413;55.658;37.498;2022-08-03T20:16:53;99219.75;;;22.57;100.00
72423;BME280;60413;55.658;37.498;2022-08-03T20:19:45;99210.72;;;22.44;100.00
72423;BME280;60413;55.658;37.498;2022-08-03T20:27:14;99248.47;;;22.56;100.00
72423;BME280;60413;55.658;37.498;2022-08-03T20:37:34;99226.59;;;22.14;100.00
72423;BME280;60413;55.658;37.498;2022-08-03T20:40:13;99209.03;;;21.99;100.00
72423;BME280;60413;55.658;37.498;2022-08-03T20:42:50;99218.84;;;22.04;100.00
72423;BME280;60413;55.658;37.498;2022-08-03T20:50:19;99271.97;;;22.33;100.00
72423;BME280;60413;55.658;37.498;2022-08-03T20:52:51;99271.31;;;22.28;100.00
72423;BME280;60413;55.658;37.498;2022-08-03T21:00:15;99280.28;;;22.14;100.00
72423;BME280;60413;55.658;37.498;2022-08-03T21:03:07;99258.06;;;21.82;100.00
72423;BME280;60413;55.658;37.498;2022-08-03T21:25:54;99227.34;;;21.35;100.00
72423;BME280;60413;55.658;37.498;2022-08-03T21:28:53;99272.50;;;21.64;100.00
72423;BME280;60413;55.658;37.498;2022-08-03T21:31:27;99248.53;;;21.45;100.00
72423;BME280;60413;55.658;37.498;2022-08-03T21:34:05;99259.19;;;21.50;100.00
72423;BME280;60413;55.658;37.498;2022-08-03T21:36:37;99224.97;;;21.33;100.00
72423;BME280;60413;55.658;37.498;2022-08-03T21:39:09;99289.84;;;21.67;100.00
72423;BME280;60413;55.658;37.498;2022-08-03T21:41:38;99233.44;;;21.26;100.00
72423;BME280;60413;55.658;37.498;2022-08-03T21:44:05;99243.44;;;21.35;100.00
72423;BME280;60413;55.658;37.498;2022-08-03T21:46:36;99242.00;;;21.28;100.00
72423;BME280;60413;55.658;37.498;2022-08-03T21:49:05;99229.03;;;21.22;100.00
72423;BME280;60413;55.658;37.498;2022-08-03T21:51:36;99253.31;;;21.48;100.00
72423;BME280;60413;55.658;37.498;2022-08-03T21:54:03;99265.72;;;21.67;100.00
72423;BME280;60413;55.658;37.498;2022-08-03T21:56:42;99292.97;;;21.91;100.00
72423;BME280;60413;55.658;37.498;2022-08-03T21:59:18;99286.34;;;21.89;100.00
72423;BME280;60413;55.658;37.498;2022-08-03T22:02:05;99278.09;;;21.85;100.00
72423;BME280;60413;55.658;37.498;2022-08-03T22:04:33;99282.22;;;21.91;100.00
72423;BME280;60413;55.658;37.498;2022-08-03T22:06:59;99305.94;;;21.98;100.00